Time;durP1;ratioP1;P1;durP2;ratioP2;P2;SDS_P1;SDS_P2;PMS_P1;PMS_P2;Temp;Humidity;BMP_temperature;BMP_pressure;BME280_temperature;BME280_humidity;BME280_pressure;Samples;Min_cycle;Max_cycle;Signal;HPM_P1;HPM_P2
2023/05/13 00:01:05;;;;;;;0.00;0.00;;;12.90;75.10;;;;;;5012172;28;20129;-64
2023/05/13 00:03:31;;;;;;;0.00;0.00;;;12.90;75.10;;;;;;5011818;28;20069;-64
2023/05/13 00:05:56;;;;;;;0.00;0.00;;;12.90;75.10;;;;;;5011976;28;20078;-64
2023/05/13 00:08:22;;;;;;;0.60;0.60;;;12.90;75.20;;;;;;5012166;28;20052;-64
2023/05/13 00:10:47;;;;;;;0.00;0.00;;;12.90;75.20;;;;;;5011919;28;20147;-64
2023/05/13 00:13:13;;;;;;;0.68;0.68;;;12.90;75.10;;;;;;5011532;28;20042;-64
2023/05/13 00:15:39;;;;;;;0.38;0.38;;;12.80;75.10;;;;;;5011784;28;20053;-64
2023/05/13 00:18:05;;;;;;;0.10;0.10;;;12.80;75.10;;;;;;5011931;28;20068;-64
2023/05/13 00:20:30;;;;;;;0.25;0.25;;;12.80;75.20;;;;;;5011534;28;20042;-64
2023/05/13 00:22:56;;;;;;;0.00;0.00;;;12.80;75.10;;;;;;5011807;28;20046;-64
2023/05/13 00:25:22;;;;;;;0.00;0.00;;;12.70;75.10;;;;;;5011779;28;20426;-64
2023/05/13 00:27:47;;;;;;;0.00;0.00;;;12.70;75.10;;;;;;5011764;28;20053;-64
2023/05/13 00:30:13;;;;;;;0.10;0.10;;;12.70;75.10;;;;;;5010169;28;20480;-64
2023/05/13 00:32:38;;;;;;;0.13;0.13;;;12.70;75.10;;;;;;5011502;28;20105;-64
2023/05/13 00:35:05;;;;;;;0.00;0.00;;;12.70;75.10;;;;;;5011520;28;20107;-64
2023/05/13 00:37:30;;;;;;;0.50;0.50;;;12.60;75.10;;;;;;5011038;28;20077;-64
2023/05/13 00:39:56;;;;;;;0.10;0.10;;;12.60;75.10;;;;;;5010839;28;20085;-64
2023/05/13 00:42:22;;;;;;;0.00;0.00;;;12.60;75.10;;;;;;5009824;28;20045;-64
2023/05/13 00:44:47;;;;;;;0.00;0.00;;;12.60;75.10;;;;;;5011329;28;20467;-64
2023/05/13 00:47:13;;;;;;;0.00;0.00;;;12.60;75.10;;;;;;5010665;28;20048;-64
2023/05/13 00:49:39;;;;;;;0.00;0.00;;;12.60;75.30;;;;;;5011133;28;20046;-65
2023/05/13 00:52:05;;;;;;;0.40;0.40;;;12.50;75.50;;;;;;5010692;28;20053;-64
2023/05/13 00:54:31;;;;;;;0.00;0.00;;;12.60;75.60;;;;;;5009998;28;20045;-64
2023/05/13 00:56:58;;;;;;;0.00;0.00;;;12.60;75.60;;;;;;5009823;28;20100;-64
2023/05/13 00:59:27;;;;;;;0.20;0.20;;;12.60;75.70;;;;;;5010972;28;20457;-64
2023/05/13 01:02:24;;;;;;;0.15;0.15;;;12.60;75.80;;;;;;5010744;28;20459;-64
2023/05/13 01:04:58;;;;;;;0.30;0.30;;;12.50;76.00;;;;;;5010948;28;20143;-64
2023/05/13 01:07:43;;;;;;;0.55;0.55;;;12.60;76.10;;;;;;5011065;28;20465;-64
2023/05/13 01:10:26;;;;;;;0.28;0.28;;;12.60;76.30;;;;;;5010908;28;20529;-64
2023/05/13 01:12:59;;;;;;;0.10;0.10;;;12.50;76.60;;;;;;5010674;28;20172;-64
2023/05/13 01:15:26;;;;;;;0.10;0.10;;;12.50;76.50;;;;;;5010966;28;20045;-64
2023/05/13 01:18:04;;;;;;;0.00;0.00;;;12.50;76.70;;;;;;5008828;28;20096;-64
2023/05/13 01:20:30;;;;;;;0.43;0.30;;;12.40;76.80;;;;;;5010834;28;20837;-64
2023/05/13 01:22:56;;;;;;;0.00;0.00;;;12.50;76.90;;;;;;5010544;28;20379;-64
2023/05/13 01:25:22;;;;;;;0.00;0.00;;;12.40;76.90;;;;;;5010491;28;20073;-64
2023/05/13 01:27:49;;;;;;;0.20;0.20;;;12.30;77.20;;;;;;5010752;28;20042;-64
2023/05/13 01:30:15;;;;;;;0.00;0.00;;;12.30;77.10;;;;;;5010360;28;20511;-64
2023/05/13 01:32:42;;;;;;;0.00;0.00;;;12.30;77.20;;;;;;5010370;28;20511;-64
2023/05/13 01:35:09;;;;;;;0.15;0.15;;;12.40;77.30;;;;;;5010502;28;20482;-64
2023/05/13 01:37:36;;;;;;;0.00;0.00;;;12.30;77.30;;;;;;5008525;28;20495;-64
2023/05/13 01:40:03;;;;;;;0.00;0.00;;;12.30;77.30;;;;;;5010241;28;20526;-64
2023/05/13 01:42:29;;;;;;;1.08;0.68;;;12.30;77.40;;;;;;5010212;28;20495;-65
2023/05/13 01:44:54;;;;;;;0.10;0.10;;;12.40;77.40;;;;;;5010084;28;20045;-65
2023/05/13 01:47:20;;;;;;;1.67;0.82;;;12.30;77.40;;;;;;5010128;28;20167;-64
2023/05/13 01:49:45;;;;;;;0.10;0.10;;;12.30;77.60;;;;;;5009569;28;20046;-64
2023/05/13 01:52:11;;;;;;;0.30;0.30;;;12.30;77.60;;;;;;5007896;28;20056;-64
2023/05/13 01:54:36;;;;;;;1.90;0.75;;;12.20;77.70;;;;;;5010093;28;20042;-64
2023/05/13 01:57:02;;;;;;;0.00;0.00;;;12.20;77.70;;;;;;5010053;28;20093;-65
2023/05/13 01:59:28;;;;;;;0.25;0.25;;;12.20;77.70;;;;;;5009875;28;20045;-64
2023/05/13 02:01:53;;;;;;;0.00;0.00;;;12.30;77.70;;;;;;5009417;28;20049;-64
2023/05/13 02:04:20;;;;;;;0.30;0.22;;;12.10;77.70;;;;;;5009870;28;20037;-64
2023/05/13 02:06:46;;;;;;;0.00;0.00;;;12.10;77.80;;;;;;5010003;28;20732;-65
2023/05/13 02:09:12;;;;;;;0.20;0.20;;;12.10;77.90;;;;;;5008461;28;20208;-64
2023/05/13 02:11:37;;;;;;;0.00;0.00;;;12.10;78.00;;;;;;5009926;28;20154;-64
2023/05/13 02:14:03;;;;;;;0.00;0.00;;;12.10;78.10;;;;;;5009463;28;20050;-64
2023/05/13 02:16:29;;;;;;;0.17;0.17;;;12.10;78.10;;;;;;5008428;28;20088;-64
2023/05/13 02:18:55;;;;;;;0.00;0.00;;;12.10;78.10;;;;;;5009665;28;20099;-64
2023/05/13 02:21:20;;;;;;;0.00;0.00;;;12.10;78.20;;;;;;5009560;28;20049;-64
2023/05/13 02:23:46;;;;;;;0.10;0.10;;;12.10;78.20;;;;;;5009936;28;20878;-64
2023/05/13 02:26:12;;;;;;;0.22;0.22;;;12.00;78.20;;;;;;5009217;28;20104;-64
2023/05/13 02:28:37;;;;;;;0.00;0.00;;;12.10;78.20;;;;;;5009744;28;20081;-64
2023/05/13 02:31:03;;;;;;;0.00;0.00;;;12.00;78.20;;;;;;5009592;28;20034;-63
2023/05/13 02:33:28;;;;;;;0.10;0.10;;;12.00;78.30;;;;;;5009402;28;20041;-64
2023/05/13 02:35:54;;;;;;;0.08;0.08;;;11.90;78.40;;;;;;5010040;28;20042;-64
2023/05/13 02:38:20;;;;;;;0.00;0.00;;;11.90;78.40;;;;;;5010443;28;20042;-64
2023/05/13 02:40:45;;;;;;;0.08;0.08;;;12.00;78.40;;;;;;5010125;28;20042;-64
2023/05/13 02:43:11;;;;;;;0.30;0.30;;;11.90;78.40;;;;;;5009285;28;20085;-64
2023/05/13 02:45:38;;;;;;;0.00;0.00;;;11.90;78.50;;;;;;5008932;28;20476;-65
2023/05/13 02:48:04;;;;;;;0.00;0.00;;;11.90;78.70;;;;;;5009388;28;20517;-65
2023/05/13 02:50:29;;;;;;;0.00;0.00;;;11.90;78.70;;;;;;5009421;28;20049;-64
2023/05/13 02:52:55;;;;;;;0.00;0.00;;;11.80;78.70;;;;;;5009136;28;20042;-65
2023/05/13 02:55:21;;;;;;;0.10;0.10;;;11.80;78.70;;;;;;5007936;28;20380;-64
2023/05/13 02:57:46;;;;;;;0.03;0.03;;;11.80;78.80;;;;;;5009316;28;20042;-64
2023/05/13 03:00:12;;;;;;;0.00;0.00;;;11.80;78.90;;;;;;5009265;28;20100;-64
2023/05/13 03:02:38;;;;;;;0.10;0.10;;;11.80;79.00;;;;;;5009166;28;20053;-64
2023/05/13 03:05:04;;;;;;;0.00;0.00;;;11.80;79.10;;;;;;5012970;28;20414;-65
2023/05/13 03:07:30;;;;;;;0.10;0.10;;;11.80;79.10;;;;;;5013114;28;20049;-64
2023/05/13 03:09:55;;;;;;;0.00;0.00;;;11.70;79.10;;;;;;5012891;28;20088;-64
2023/05/13 03:12:21;;;;;;;0.00;0.00;;;11.80;79.20;;;;;;5012990;28;20053;-64
2023/05/13 03:14:47;;;;;;;0.00;0.00;;;11.70;79.20;;;;;;5012647;28;20124;-64
2023/05/13 03:17:12;;;;;;;0.45;0.45;;;11.70;79.20;;;;;;4995306;28;20096;-64
2023/05/13 03:19:38;;;;;;;0.10;0.10;;;11.70;79.20;;;;;;5012830;28;20124;-64
2023/05/13 03:22:04;;;;;;;2.22;0.80;;;11.70;79.30;;;;;;5012375;28;20037;-64
2023/05/13 03:24:30;;;;;;;0.03;0.03;;;11.70;79.40;;;;;;5012612;28;20053;-64
2023/05/13 03:26:56;;;;;;;0.13;0.13;;;11.70;79.30;;;;;;5012734;28;20050;-64
2023/05/13 03:29:22;;;;;;;0.10;0.10;;;11.70;79.30;;;;;;5012834;28;20559;-64
2023/05/13 03:31:48;;;;;;;0.00;0.00;;;11.70;79.40;;;;;;5012504;28;20495;-64
2023/05/13 03:34:14;;;;;;;0.05;0.05;;;11.70;79.50;;;;;;5012471;28;20092;-65
2023/05/13 03:36:39;;;;;;;0.00;0.00;;;11.60;79.50;;;;;;5011186;28;20458;-64
2023/05/13 03:39:05;;;;;;;0.68;0.45;;;11.60;79.50;;;;;;5012635;28;20121;-64
2023/05/13 03:41:30;;;;;;;0.17;0.17;;;11.70;79.40;;;;;;5012236;28;20049;-64
2023/05/13 03:43:56;;;;;;;0.00;0.00;;;11.60;79.40;;;;;;5010923;28;20080;-64
2023/05/13 03:46:22;;;;;;;0.00;0.00;;;11.70;79.40;;;;;;5012432;28;20100;-64
2023/05/13 03:48:48;;;;;;;0.20;0.20;;;11.60;79.40;;;;;;5012077;28;20118;-65
2023/05/13 03:51:14;;;;;;;0.03;0.03;;;11.60;79.40;;;;;;5011992;28;20088;-64
2023/05/13 03:53:40;;;;;;;0.00;0.00;;;11.70;79.30;;;;;;5011668;28;20060;-64
2023/05/13 03:56:06;;;;;;;0.32;0.32;;;11.70;79.30;;;;;;5012164;28;20514;-64
2023/05/13 03:58:31;;;;;;;0.32;0.32;;;11.60;79.30;;;;;;5012038;28;20132;-64
2023/05/13 04:00:57;;;;;;;0.00;0.00;;;11.70;79.40;;;;;;5010456;28;20050;-64
2023/05/13 04:03:22;;;;;;;0.00;0.00;;;11.70;79.40;;;;;;5011845;28;20061;-64
2023/05/13 04:05:49;;;;;;;0.10;0.10;;;11.70;79.50;;;;;;5011783;28;20041;-64
2023/05/13 04:08:15;;;;;;;0.10;0.10;;;11.70;79.50;;;;;;5011591;28;20046;-64
2023/05/13 04:10:41;;;;;;;0.03;0.03;;;11.80;79.60;;;;;;5011790;28;20052;-64
2023/05/13 04:13:06;;;;;;;0.28;0.28;;;11.80;79.70;;;;;;5011728;28;20052;-64
2023/05/13 04:15:32;;;;;;;0.13;0.13;;;11.80;79.90;;;;;;5010745;28;20073;-64
2023/05/13 04:17:58;;;;;;;0.10;0.10;;;11.80;80.00;;;;;;5010329;28;20041;-64
2023/05/13 04:20:24;;;;;;;0.00;0.00;;;11.80;80.00;;;;;;5011466;28;20052;-64
2023/05/13 04:22:50;;;;;;;1.38;0.50;;;11.80;79.90;;;;;;5011598;28;20045;-63
2023/05/13 04:25:16;;;;;;;0.10;0.10;;;11.80;79.90;;;;;;5011194;28;20044;-64
2023/05/13 04:27:42;;;;;;;0.55;0.40;;;11.90;79.90;;;;;;5011166;28;20496;-64
2023/05/13 04:30:08;;;;;;;0.13;0.13;;;11.90;80.10;;;;;;5009922;28;20057;-64
2023/05/13 04:32:34;;;;;;;0.00;0.00;;;11.90;80.10;;;;;;5011103;28;20507;-64
2023/05/13 04:34:59;;;;;;;0.10;0.10;;;11.90;80.10;;;;;;5011296;28;20076;-64
2023/05/13 04:37:26;;;;;;;0.25;0.25;;;11.90;80.20;;;;;;5009687;28;20413;-64
2023/05/13 04:39:52;;;;;;;0.00;0.00;;;11.90;80.60;;;;;;5011399;28;20046;-64
2023/05/13 04:42:17;;;;;;;0.00;0.00;;;11.90;80.50;;;;;;5010954;28;20050;-64
2023/05/13 04:44:43;;;;;;;0.00;0.00;;;11.90;80.60;;;;;;5011147;28;20387;-64
2023/05/13 04:47:09;;;;;;;0.00;0.00;;;11.90;80.70;;;;;;5010718;28;20054;-64
2023/05/13 04:49:35;;;;;;;0.00;0.00;;;11.90;80.80;;;;;;4993428;28;20049;-65
2023/05/13 04:52:02;;;;;;;0.00;0.00;;;11.90;80.90;;;;;;5009497;28;20096;-64
2023/05/13 04:54:27;;;;;;;0.08;0.08;;;11.90;81.00;;;;;;5010939;28;20049;-64
2023/05/13 04:56:53;;;;;;;1.10;0.68;;;11.90;80.90;;;;;;5010978;28;20046;-65
2023/05/13 04:59:18;;;;;;;0.00;0.00;;;12.00;81.00;;;;;;5010777;28;20112;-64
2023/05/13 05:01:44;;;;;;;0.00;0.00;;;12.10;81.00;;;;;;5010654;28;20074;-64
2023/05/13 05:04:10;;;;;;;0.50;0.50;;;12.10;80.90;;;;;;5010642;28;20491;-64
2023/05/13 05:06:36;;;;;;;0.20;0.20;;;12.10;81.00;;;;;;5010654;28;20084;-64
2023/05/13 05:09:01;;;;;;;0.00;0.00;;;12.10;81.20;;;;;;5010913;28;20077;-64
2023/05/13 05:11:27;;;;;;;1.88;1.55;;;12.10;81.30;;;;;;4992884;28;20516;-65
2023/05/13 05:13:53;;;;;;;0.03;0.03;;;12.10;81.10;;;;;;5010247;28;20057;-63
2023/05/13 05:16:18;;;;;;;0.50;0.45;;;12.20;81.20;;;;;;5010542;28;20372;-65
2023/05/13 05:18:44;;;;;;;0.25;0.25;;;12.20;81.10;;;;;;5010780;28;20446;-65
2023/05/13 05:21:10;;;;;;;0.00;0.00;;;12.30;81.00;;;;;;5010749;28;20152;-65
2023/05/13 05:23:36;;;;;;;0.00;0.00;;;12.30;80.90;;;;;;5010584;28;20104;-65
2023/05/13 05:26:02;;;;;;;0.73;0.73;;;12.40;80.80;;;;;;5010292;28;20046;-65
2023/05/13 05:28:28;;;;;;;0.10;0.10;;;12.40;80.80;;;;;;5010342;28;20052;-65
2023/05/13 05:30:54;;;;;;;0.08;0.08;;;12.50;80.60;;;;;;5010104;28;20046;-65
2023/05/13 05:33:20;;;;;;;0.43;0.43;;;12.50;80.50;;;;;;5010270;28;20072;-65
2023/05/13 05:35:46;;;;;;;0.00;0.00;;;12.60;80.50;;;;;;5010183;28;20049;-65
2023/05/13 05:38:12;;;;;;;0.00;0.00;;;12.60;80.50;;;;;;5010242;28;20406;-65
2023/05/13 05:40:40;;;;;;;0.00;0.00;;;12.60;80.50;;;;;;5009125;28;20052;-65
2023/05/13 05:43:06;;;;;;;23.77;0.98;;;12.80;80.50;;;;;;5010104;28;20038;-65
2023/05/13 05:45:34;;;;;;;0.00;0.00;;;12.80;80.20;;;;;;4992839;28;20046;-65
2023/05/13 05:48:00;;;;;;;0.00;0.00;;;12.80;80.30;;;;;;5008872;28;20089;-65
2023/05/13 05:50:27;;;;;;;0.10;0.10;;;13.00;80.10;;;;;;5009785;28;20070;-65
2023/05/13 05:52:53;;;;;;;0.00;0.00;;;12.90;80.00;;;;;;5010018;28;20042;-65
2023/05/13 05:55:18;;;;;;;0.03;0.03;;;13.00;80.00;;;;;;5009822;28;20410;-65
2023/05/13 05:57:44;;;;;;;0.00;0.00;;;13.10;80.00;;;;;;5009651;28;20053;-65
2023/05/13 06:00:10;;;;;;;0.00;0.00;;;13.10;79.80;;;;;;5009986;28;20042;-65
2023/05/13 06:02:36;;;;;;;0.17;0.17;;;13.20;79.70;;;;;;5009505;28;20066;-65
2023/05/13 06:05:02;;;;;;;0.13;0.13;;;13.20;79.70;;;;;;5009675;28;20042;-65
2023/05/13 06:07:27;;;;;;;0.08;0.08;;;13.30;79.60;;;;;;5008386;28;20034;-65
2023/05/13 06:09:54;;;;;;;0.10;0.10;;;13.50;79.60;;;;;;5009728;28;20108;-65
2023/05/13 06:12:19;;;;;;;0.15;0.15;;;13.50;79.20;;;;;;5009532;28;20045;-65
2023/05/13 06:14:45;;;;;;;3.65;1.55;;;13.60;78.90;;;;;;5009877;28;20495;-65
2023/05/13 06:17:13;;;;;;;0.20;0.20;;;13.60;78.90;;;;;;4992419;28;20049;-65
2023/05/13 06:19:41;;;;;;;0.05;0.05;;;13.70;78.80;;;;;;5008554;28;20054;-65
2023/05/13 06:22:10;;;;;;;0.00;0.00;;;13.70;78.50;;;;;;5009665;28;20042;-65
2023/05/13 06:24:36;;;;;;;0.10;0.10;;;13.80;78.60;;;;;;5009251;28;20112;-65
2023/05/13 06:27:02;;;;;;;0.00;0.00;;;13.90;78.60;;;;;;5009604;28;20038;-65
2023/05/13 06:29:28;;;;;;;0.10;0.10;;;14.00;78.50;;;;;;5009167;28;20092;-66
2023/05/13 06:31:54;;;;;;;0.00;0.00;;;14.10;78.50;;;;;;5009303;28;20401;-65
2023/05/13 06:34:19;;;;;;;0.00;0.00;;;14.10;78.40;;;;;;5009572;28;20042;-65
2023/05/13 06:36:45;;;;;;;0.00;0.00;;;14.10;78.20;;;;;;4992335;28;20042;-65
2023/05/13 06:39:11;;;;;;;0.00;0.00;;;14.20;78.20;;;;;;5011935;28;20042;-64
2023/05/13 06:41:40;;;;;;;0.05;0.05;;;14.20;78.20;;;;;;5012235;28;20046;-65
2023/05/13 06:44:06;;;;;;;0.00;0.00;;;14.30;78.10;;;;;;5013429;28;20509;-65
2023/05/13 06:46:32;;;;;;;0.00;0.00;;;14.40;78.00;;;;;;5013052;28;20042;-65
2023/05/13 06:48:58;;;;;;;0.10;0.10;;;14.50;77.90;;;;;;5013606;28;20061;-65
2023/05/13 06:51:26;;;;;;;0.10;0.10;;;14.50;77.60;;;;;;5014289;28;20487;-65
2023/05/13 06:53:52;;;;;;;0.20;0.20;;;14.60;77.40;;;;;;5013241;28;20181;-65
2023/05/13 06:56:18;;;;;;;0.00;0.00;;;14.60;77.00;;;;;;5013264;28;20053;-65
2023/05/13 06:58:43;;;;;;;0.35;0.35;;;14.70;76.80;;;;;;5012930;28;20054;-65
2023/05/13 07:01:09;;;;;;;0.10;0.10;;;14.70;76.70;;;;;;5012987;28;20045;-65
2023/05/13 07:03:36;;;;;;;0.00;0.00;;;14.80;76.50;;;;;;5013017;28;20045;-65
2023/05/13 07:06:03;;;;;;;0.10;0.10;;;14.80;76.30;;;;;;5012647;28;20061;-65
2023/05/13 07:08:28;;;;;;;0.20;0.20;;;14.90;76.00;;;;;;5012999;28;20042;-65
2023/05/13 07:10:54;;;;;;;0.35;0.15;;;15.10;75.40;;;;;;5011725;28;20045;-65
2023/05/13 07:13:21;;;;;;;0.00;0.00;;;15.10;74.90;;;;;;5013037;28;20041;-65
2023/05/13 07:15:46;;;;;;;0.15;0.15;;;15.10;75.00;;;;;;5013030;28;20795;-65
2023/05/13 07:18:12;;;;;;;0.13;0.13;;;15.10;75.10;;;;;;5012392;28;20088;-65
2023/05/13 07:20:38;;;;;;;0.03;0.03;;;15.20;74.80;;;;;;5012598;28;20084;-65
2023/05/13 07:23:03;;;;;;;0.20;0.20;;;15.30;74.30;;;;;;5012579;28;20103;-65
2023/05/13 07:25:29;;;;;;;0.00;0.00;;;15.40;73.80;;;;;;5012430;28;20041;-65
2023/05/13 07:27:55;;;;;;;0.00;0.00;;;15.40;73.80;;;;;;5012479;28;20049;-65
2023/05/13 07:30:20;;;;;;;0.30;0.10;;;15.40;74.20;;;;;;5012651;28;20046;-65
2023/05/13 07:32:46;;;;;;;0.00;0.00;;;15.60;74.20;;;;;;4994792;28;20478;-65
2023/05/13 07:35:12;;;;;;;0.00;0.00;;;15.60;74.00;;;;;;5012431;28;20042;-65
2023/05/13 07:37:37;;;;;;;0.10;0.10;;;15.70;73.40;;;;;;5012306;28;20068;-65
2023/05/13 07:40:06;;;;;;;0.00;0.00;;;15.80;73.10;;;;;;5012341;28;20231;-65
2023/05/13 07:42:32;;;;;;;0.05;0.05;;;15.80;72.70;;;;;;5012215;28;20054;-65
2023/05/13 07:44:58;;;;;;;0.30;0.30;;;15.80;72.20;;;;;;5010851;28;20045;-66
2023/05/13 07:47:24;;;;;;;0.32;0.32;;;15.90;71.50;;;;;;4994676;28;20124;-65
2023/05/13 07:49:49;;;;;;;0.00;0.00;;;16.00;70.90;;;;;;4994048;28;20073;-65
2023/05/13 07:52:15;;;;;;;0.10;0.10;;;16.00;70.50;;;;;;5012160;28;20077;-65
2023/05/13 07:54:41;;;;;;;0.10;0.10;;;16.00;70.60;;;;;;5011928;28;20509;-65
2023/05/13 07:57:07;;;;;;;0.63;0.63;;;16.10;71.20;;;;;;5012269;28;20414;-65
2023/05/13 07:59:32;;;;;;;0.10;0.10;;;16.10;71.10;;;;;;5011827;28;20642;-65
2023/05/13 08:01:58;;;;;;;0.00;0.00;;;16.20;70.80;;;;;;5011740;28;20435;-65
2023/05/13 08:04:23;;;;;;;0.13;0.13;;;16.20;70.80;;;;;;5011714;28;20046;-65
2023/05/13 08:06:49;;;;;;;0.00;0.00;;;16.30;70.30;;;;;;5011855;28;20042;-65
2023/05/13 08:09:15;;;;;;;0.20;0.20;;;16.30;70.30;;;;;;5011789;28;20057;-65
2023/05/13 08:11:40;;;;;;;0.00;0.00;;;16.50;69.20;;;;;;5011658;28;20491;-66
2023/05/13 08:14:06;;;;;;;0.15;0.15;;;16.50;69.00;;;;;;5010729;28;20050;-65
2023/05/13 08:16:35;;;;;;;0.17;0.17;;;16.50;68.60;;;;;;5011700;28;20494;-64
2023/05/13 08:19:00;;;;;;;8.55;1.42;;;16.50;69.30;;;;;;5011813;28;20037;-65
2023/05/13 08:21:26;;;;;;;0.10;0.10;;;16.60;69.10;;;;;;5011538;28;20149;-65
2023/05/13 08:23:51;;;;;;;0.00;0.00;;;16.60;69.50;;;;;;5010367;28;20054;-65
2023/05/13 08:26:17;;;;;;;0.03;0.03;;;16.70;69.10;;;;;;5010973;28;20548;-64
2023/05/13 08:28:43;;;;;;;0.80;0.30;;;16.80;68.80;;;;;;5011557;28;20049;-65
2023/05/13 08:31:12;;;;;;;0.00;0.00;;;16.90;67.80;;;;;;5011704;28;20056;-65
2023/05/13 08:33:40;;;;;;;0.00;0.00;;;16.90;68.10;;;;;;5010225;28;20398;-66
2023/05/13 08:36:06;;;;;;;0.77;0.45;;;16.90;68.60;;;;;;5012230;28;20046;-65
2023/05/13 08:38:32;;;;;;;0.10;0.10;;;16.90;69.00;;;;;;5010943;28;20046;-65
2023/05/13 08:40:58;;;;;;;0.00;0.00;;;17.00;68.90;;;;;;5009844;28;20154;-65
2023/05/13 08:43:27;;;;;;;1.45;0.98;;;17.10;68.90;;;;;;5011300;28;20046;-66
2023/05/13 08:45:55;;;;;;;0.00;0.00;;;17.10;69.10;;;;;;5011098;28;20038;-65
2023/05/13 08:48:22;;;;;;;0.30;0.30;;;17.10;68.90;;;;;;5010733;28;20085;-65
2023/05/13 08:50:48;;;;;;;0.00;0.00;;;17.30;68.50;;;;;;5011042;28;20053;-65
2023/05/13 08:53:17;;;;;;;0.00;0.00;;;17.30;67.70;;;;;;5009750;28;20077;-65
2023/05/13 08:55:42;;;;;;;0.10;0.10;;;17.30;67.90;;;;;;5010621;28;20046;-65
2023/05/13 08:58:08;;;;;;;0.20;0.20;;;17.40;67.70;;;;;;5011058;28;20092;-65
2023/05/13 09:00:34;;;;;;;0.10;0.10;;;17.50;67.40;;;;;;5010764;28;20053;-65
2023/05/13 09:03:00;;;;;;;0.00;0.00;;;17.60;67.00;;;;;;5010604;28;20518;-65
2023/05/13 09:05:26;;;;;;;0.08;0.08;;;17.60;66.80;;;;;;5010472;28;20053;-65
2023/05/13 09:07:53;;;;;;;0.00;0.00;;;17.50;66.80;;;;;;5009866;28;20407;-65
2023/05/13 09:10:19;;;;;;;1.00;0.63;;;17.60;66.90;;;;;;5010612;28;20048;-65
2023/05/13 09:12:46;;;;;;;0.10;0.10;;;17.70;66.80;;;;;;5010734;28;20483;-65
2023/05/13 09:15:17;;;;;;;0.15;0.15;;;17.70;67.30;;;;;;5010337;28;20049;-64
2023/05/13 09:17:46;;;;;;;0.17;0.17;;;17.70;67.40;;;;;;5010572;28;20046;-65
2023/05/13 09:20:14;;;;;;;0.05;0.05;;;17.80;67.60;;;;;;5010702;28;20044;-65
2023/05/13 09:22:51;;;;;;;0.00;0.00;;;17.80;67.50;;;;;;5008692;28;20045;-66
2023/05/13 09:25:19;;;;;;;0.08;0.08;;;17.80;67.10;;;;;;5009313;28;20103;-65
2023/05/13 09:27:52;;;;;;;0.10;0.10;;;18.00;66.30;;;;;;5010381;28;20061;-65
2023/05/13 09:30:22;;;;;;;1.05;1.05;;;17.90;66.70;;;;;;5010255;28;20053;-65
2023/05/13 09:33:20;;;;;;;0.00;0.00;;;18.00;66.90;;;;;;5009121;28;20053;-65
2023/05/13 09:35:51;;;;;;;0.50;0.50;;;18.00;67.50;;;;;;5010309;28;20100;-65
2023/05/13 09:38:19;;;;;;;0.10;0.10;;;18.10;66.60;;;;;;5009014;28;20045;-65
2023/05/13 09:40:58;;;;;;;0.52;0.52;;;18.10;66.50;;;;;;5010622;28;20311;-64
2023/05/13 09:43:25;;;;;;;0.20;0.20;;;18.20;66.50;;;;;;5010143;28;20048;-65
2023/05/13 09:45:55;;;;;;;0.10;0.10;;;18.20;66.40;;;;;;5010273;28;20042;-65
2023/05/13 09:48:23;;;;;;;1.00;0.93;;;18.30;66.30;;;;;;5010105;28;20065;-64
2023/05/13 09:50:50;;;;;;;3.95;1.55;;;18.30;66.00;;;;;;5008703;28;20054;-65
2023/05/13 09:53:16;;;;;;;0.00;0.00;;;18.30;66.20;;;;;;5009814;28;20057;-65
2023/05/13 09:55:46;;;;;;;0.20;0.20;;;18.30;66.20;;;;;;5010106;28;20486;-65
2023/05/13 09:58:12;;;;;;;2.55;1.13;;;18.40;66.30;;;;;;5010066;28;20511;-65
2023/05/13 10:00:42;;;;;;;1.58;1.48;;;18.40;66.80;;;;;;5009815;28;20041;-65
2023/05/13 10:03:08;;;;;;;2.33;2.13;;;18.50;66.10;;;;;;5009776;28;20050;-65
2023/05/13 10:05:34;;;;;;;2.75;1.63;;;18.50;65.70;;;;;;5009565;28;20050;-65
2023/05/13 10:08:01;;;;;;;0.82;0.82;;;18.50;65.40;;;;;;5009786;28;20247;-65
2023/05/13 10:10:32;;;;;;;0.38;0.38;;;18.50;66.00;;;;;;5009782;28;20456;-65
2023/05/13 10:13:02;;;;;;;0.05;0.05;;;18.50;66.50;;;;;;5007726;28;20093;-65
2023/05/13 10:15:29;;;;;;;0.50;0.50;;;18.60;66.00;;;;;;5009982;28;20046;-65
2023/05/13 10:17:56;;;;;;;0.00;0.00;;;18.70;65.10;;;;;;5008207;28;20057;-65
2023/05/13 10:20:24;;;;;;;0.00;0.00;;;18.70;65.00;;;;;;5010270;28;20045;-65
2023/05/13 10:22:51;;;;;;;0.00;0.00;;;18.60;65.50;;;;;;5010570;28;20041;-65
2023/05/13 10:25:17;;;;;;;0.43;0.43;;;18.70;65.60;;;;;;5008954;28;20699;-65
2023/05/13 10:27:42;;;;;;;0.10;0.10;;;18.80;65.30;;;;;;5008465;28;20045;-65
2023/05/13 10:30:09;;;;;;;0.65;0.57;;;18.70;65.10;;;;;;5009662;28;20057;-65
2023/05/13 10:32:38;;;;;;;15.98;1.27;;;18.80;65.20;;;;;;5009452;28;20057;-65
2023/05/13 10:35:10;;;;;;;0.00;0.00;;;18.80;65.30;;;;;;5009439;28;20049;-65
2023/05/13 10:38:08;;;;;;;1.67;1.02;;;18.90;65.10;;;;;;5008796;28;20960;-65
2023/05/13 10:40:45;;;;;;;0.55;0.55;;;19.00;64.70;;;;;;4992336;28;20085;-65
2023/05/13 10:43:18;;;;;;;0.00;0.00;;;19.00;64.80;;;;;;5009561;28;20450;-65
2023/05/13 10:45:48;;;;;;;0.38;0.38;;;19.00;64.90;;;;;;5009219;28;20044;-65
2023/05/13 10:48:15;;;;;;;0.10;0.10;;;19.00;64.90;;;;;;5009403;28;20049;-65
2023/05/13 10:50:55;;;;;;;0.10;0.10;;;19.00;64.60;;;;;;5009602;28;20045;-65
2023/05/13 10:53:24;;;;;;;0.30;0.30;;;19.10;63.70;;;;;;5009387;28;20121;-65
2023/05/13 10:55:54;;;;;;;0.30;0.30;;;19.10;64.20;;;;;;5009152;28;20045;-65
2023/05/13 10:58:23;;;;;;;0.10;0.10;;;19.10;64.50;;;;;;5009134;28;20048;-64
2023/05/13 11:00:49;;;;;;;0.00;0.00;;;19.20;64.20;;;;;;5009721;28;20316;-65
2023/05/13 11:03:18;;;;;;;0.00;0.00;;;19.10;63.90;;;;;;5008969;28;20417;-65
2023/05/13 11:05:56;;;;;;;0.00;0.00;;;19.20;63.50;;;;;;5009153;28;20704;-66
2023/05/13 11:08:45;;;;;;;0.43;0.20;;;19.30;63.50;;;;;;5008833;28;20152;-65
2023/05/13 11:11:21;;;;;;;0.00;0.00;;;19.30;63.50;;;;;;5008126;28;20046;-65
2023/05/13 11:13:51;;;;;;;0.00;0.00;;;19.30;62.70;;;;;;5009301;28;20046;-65
2023/05/13 11:16:17;;;;;;;0.28;0.28;;;19.50;61.90;;;;;;5008848;28;20112;-65
2023/05/13 11:18:43;;;;;;;1.08;0.98;;;19.50;61.70;;;;;;5009211;28;20525;-65
2023/05/13 11:21:09;;;;;;;0.00;0.00;;;19.50;61.60;;;;;;5008637;28;20073;-65
2023/05/13 11:23:58;;;;;;;0.63;0.63;;;19.50;60.90;;;;;;5007821;28;20414;-65
2023/05/13 11:26:24;;;;;;;0.00;0.00;;;19.50;60.90;;;;;;5012565;28;20483;-65
2023/05/13 11:29:01;;;;;;;0.28;0.28;;;19.50;61.20;;;;;;5012568;28;20156;-65
2023/05/13 11:31:40;;;;;;;0.00;0.00;;;19.60;61.20;;;;;;5012395;28;20049;-65
2023/05/13 11:34:16;;;;;;;0.20;0.20;;;19.60;60.60;;;;;;5012611;28;20130;-65
2023/05/13 11:36:46;;;;;;;0.00;0.00;;;19.70;60.50;;;;;;5012030;28;20045;-65
2023/05/13 11:39:25;;;;;;;0.30;0.20;;;19.60;60.60;;;;;;5012582;28;20042;-65
2023/05/13 11:41:52;;;;;;;0.10;0.10;;;19.70;60.10;;;;;;5012245;28;20049;-65
2023/05/13 11:44:22;;;;;;;0.00;0.00;;;19.70;60.40;;;;;;5012373;28;20431;-65
2023/05/13 11:46:56;;;;;;;0.20;0.20;;;19.70;60.80;;;;;;5011770;28;20049;-65
2023/05/13 11:49:39;;;;;;;0.22;0.22;;;19.80;60.90;;;;;;5012161;28;20104;-65
2023/05/13 11:52:09;;;;;;;0.35;0.35;;;19.90;60.50;;;;;;5012274;28;20510;-65
2023/05/13 11:54:47;;;;;;;0.73;0.73;;;20.00;60.30;;;;;;5012130;28;20407;-65
2023/05/13 11:57:16;;;;;;;0.17;0.17;;;20.00;60.70;;;;;;5012009;28;20088;-65
2023/05/13 11:59:52;;;;;;;0.10;0.10;;;20.00;60.80;;;;;;5011820;28;20038;-65
2023/05/13 12:02:36;;;;;;;0.10;0.10;;;20.10;60.70;;;;;;5011699;28;20049;-66
2023/05/13 12:05:03;;;;;;;0.10;0.10;;;20.10;60.30;;;;;;5012057;28;20096;-65
2023/05/13 12:07:29;;;;;;;0.00;0.00;;;20.10;59.40;;;;;;5012006;28;20053;-65
2023/05/13 12:09:57;;;;;;;0.00;0.00;;;20.10;59.10;;;;;;5011865;28;20133;-65
2023/05/13 12:12:24;;;;;;;0.22;0.22;;;20.10;58.90;;;;;;5012631;28;20042;-65
2023/05/13 12:14:50;;;;;;;0.15;0.15;;;20.20;58.80;;;;;;5012675;28;20042;-65
2023/05/13 12:17:20;;;;;;;0.00;0.00;;;20.30;58.60;;;;;;5010527;28;20053;-73
2023/05/13 12:20:12;;;;;;;0.00;0.00;;;20.30;58.20;;;;;;5010996;28;20049;-69
2023/05/13 12:22:44;;;;;;;0.00;0.00;;;20.30;58.50;;;;;;5009709;28;20049;-71
2023/05/13 12:25:40;;;;;;;0.22;0.22;;;20.30;58.90;;;;;;5010045;28;20046;-64
2023/05/13 12:28:18;;;;;;;0.90;0.70;;;20.30;58.90;;;;;;5011376;28;20050;-64
2023/05/13 12:31:04;;;;;;;1.45;0.60;;;20.40;59.60;;;;;;5011604;28;20092;-64
2023/05/13 12:33:41;;;;;;;8.38;1.95;;;20.50;59.50;;;;;;5010020;28;20046;-64
2023/05/13 12:36:24;;;;;;;0.30;0.30;;;20.60;57.20;;;;;;5010670;28;20133;-63
2023/05/13 12:39:00;;;;;;;0.10;0.10;;;20.70;57.00;;;;;;5011291;28;20049;-64
2023/05/13 12:41:30;;;;;;;0.00;0.00;;;20.70;57.00;;;;;;5011312;28;20050;-64
2023/05/13 12:44:03;;;;;;;0.00;0.00;;;20.70;57.40;;;;;;5011288;28;20192;-64
2023/05/13 12:46:29;;;;;;;0.10;0.10;;;20.80;57.70;;;;;;5010913;28;20495;-63
2023/05/13 12:48:56;;;;;;;0.10;0.10;;;20.90;57.40;;;;;;5011105;28;20193;-64
2023/05/13 12:51:23;;;;;;;1.75;0.88;;;21.00;57.20;;;;;;5010983;28;20046;-65